createdAt,value
2022-09-12T00:02:57.601Z,99943.38
2022-09-12T00:08:00.243Z,99945.91
2022-09-12T00:13:02.009Z,99939.22
2022-09-12T00:18:03.921Z,99939.22
2022-09-12T00:23:05.719Z,99938.38
2022-09-12T00:28:07.472Z,99937.56
2022-09-12T00:33:10.019Z,99932.53
2022-09-12T00:38:16.326Z,99933.44
2022-09-12T00:43:29.996Z,99921.63
2022-09-12T00:48:55.962Z,99916.56
2022-09-12T00:53:59.492Z,99926.69
2022-09-12T00:59:12.208Z,99913.19
2022-09-12T01:04:14.300Z,99917.41
2022-09-12T01:09:20.434Z,99909.78
2022-09-12T01:14:22.026Z,99914.88
2022-09-12T01:19:52.432Z,99912.31
2022-09-12T01:25:47.044Z,99906.41
2022-09-12T01:31:08.861Z,99907.25
2022-09-12T01:36:17.139Z,99903.03
2022-09-12T01:41:30.522Z,99902.19
2022-09-12T01:46:46.954Z,99900.50
2022-09-12T01:51:59.105Z,99908.06
2022-09-12T01:57:08.715Z,99898.81
2022-09-12T02:02:24.161Z,99897.06
2022-09-12T02:07:37.969Z,99897.13
2022-09-12T02:12:48.864Z,99897.97
2022-09-12T02:17:52.328Z,99897.97
2022-09-12T02:22:57.417Z,99885.28
2022-09-12T02:28:09.589Z,99887.84
2022-09-12T02:33:26.760Z,99897.09
2022-09-12T02:38:48.702Z,99879.34
2022-09-12T02:43:52.691Z,99877.63
2022-09-12T02:48:56.116Z,99880.13
2022-09-12T02:53:58.128Z,99880.13
2022-09-12T02:59:04.870Z,99879.28
2022-09-12T03:04:31.309Z,99878.41
2022-09-12T03:09:40.206Z,99872.53
2022-09-12T03:14:42.041Z,99874.22
2022-09-12T03:20:01.198Z,99879.31
2022-09-12T03:25:21.961Z,99871.78
2022-09-12T03:30:24.499Z,99872.63
2022-09-12T03:35:26.661Z,99882.81
2022-09-12T03:40:28.218Z,99881.16
2022-09-12T03:45:30.402Z,99875.25
2022-09-12T03:50:32.449Z,99883.72
2022-09-12T03:55:34.263Z,99874.44
2022-09-12T04:00:36.117Z,99878.69
2022-09-12T04:05:37.984Z,99887.13
2022-09-12T04:10:40.135Z,99888.03
2022-09-12T04:15:41.989Z,99889.72
2022-09-12T04:20:43.553Z,99887.16
2022-09-12T04:25:52.960Z,99887.25
2022-09-12T04:30:55.882Z,99887.28
2022-09-12T04:36:05.204Z,99886.44
2022-09-12T04:41:29.008Z,99883.09
2022-09-12T04:46:33.333Z,99888.16
2022-09-12T04:51:37.501Z,99896.59
2022-09-12T04:56:42.174Z,99889.13
2022-09-12T05:01:43.973Z,99895.03
2022-09-12T05:06:47.444Z,99910.22
2022-09-12T05:12:05.619Z,99908.50
2022-09-12T05:17:07.972Z,99915.19
2022-09-12T05:22:09.970Z,99919.38
2022-09-12T05:27:11.885Z,99929.50
2022-09-12T05:32:13.746Z,99930.25
2022-09-12T05:37:15.540Z,99941.13
2022-09-12T05:42:17.331Z,99942.81
2022-09-12T05:47:19.201Z,99943.63
2022-09-12T05:52:21.001Z,99941.06
2022-09-12T05:57:22.862Z,99939.41
2022-09-12T06:02:24.739Z,99942.09
2022-09-12T06:07:26.648Z,99938.72
2022-09-12T06:12:31.028Z,99934.47
2022-09-12T06:17:33.069Z,99935.19
2022-09-12T06:22:34.710Z,99934.06
2022-09-12T06:27:36.472Z,99938.91
2022-09-12T06:32:38.247Z,99942.19
2022-09-12T06:37:40.695Z,99946.34
2022-09-12T06:42:42.357Z,99943.59
2022-09-12T06:47:44.130Z,99954.38
2022-09-12T06:52:49.474Z,99947.44
2022-09-12T06:57:52.274Z,99953.91
2022-09-12T07:02:56.546Z,99950.25
2022-09-12T07:07:58.612Z,99951.91
2022-09-12T07:13:00.413Z,99949.22
2022-09-12T07:18:02.812Z,99954.94
2022-09-12T07:23:04.619Z,99953.16
2022-09-12T07:28:08.014Z,99959.13
2022-09-12T07:33:09.681Z,99965.81
2022-09-12T07:38:11.456Z,99971.69
2022-09-12T07:43:13.253Z,99971.53
2022-09-12T07:48:15.092Z,99969.03
2022-09-12T07:53:16.885Z,99966.44
2022-09-12T07:58:18.480Z,99970.63
2022-09-12T08:03:20.510Z,99973.09
2022-09-12T08:08:22.311Z,99976.34
2022-09-12T08:13:24.541Z,99976.47
2022-09-12T08:18:31.002Z,99974.63
2022-09-12T08:23:33.533Z,99968.63
2022-09-12T08:28:35.934Z,99969.34
2022-09-12T08:33:38.173Z,99972.63
2022-09-12T08:38:43.753Z,99975.25
2022-09-12T08:43:52.054Z,99975.94
2022-09-12T08:48:59.207Z,99980.16
2022-09-12T08:54:03.061Z,99976.59
2022-09-12T08:59:04.678Z,99975.59
2022-09-12T09:04:15.556Z,99981.34
2022-09-12T09:09:26.372Z,99970.91
2022-09-12T09:14:59.013Z,99976.59
2022-09-12T09:20:19.218Z,99964.63
2022-09-12T09:25:25.269Z,99955.97
2022-09-12T09:30:28.696Z,99961.03
2022-09-12T09:35:47.536Z,99949.31
2022-09-12T09:41:16.257Z,99944.13
2022-09-12T09:46:18.501Z,99947.41
2022-09-12T09:51:32.853Z,99933.72
2022-09-12T09:56:36.530Z,99938.44
2022-09-12T10:01:51.983Z,99930.03
2022-09-12T10:06:59.087Z,99936.94
2022-09-12T10:12:20.564Z,99921.59
2022-09-12T10:17:34.302Z,99925.78
2022-09-12T10:22:38.369Z,99919.78
2022-09-12T10:27:42.146Z,99923.88
2022-09-12T10:32:52.241Z,99918.16
2022-09-12T10:37:58.560Z,99922.66
2022-09-12T10:43:00.818Z,99919.16
2022-09-12T10:48:24.480Z,99921.19
2022-09-12T10:53:47.898Z,99907.63
2022-09-12T10:59:20.105Z,99915.03
2022-09-12T11:04:34.602Z,99907.03
2022-09-12T11:09:54.716Z,99896.94
2022-09-12T11:15:26.495Z,99891.28
2022-09-12T11:20:40.954Z,99889.03
2022-09-12T11:25:50.386Z,99887.22
2022-09-12T11:31:36.526Z,99875.63
2022-09-12T11:36:44.303Z,99864.78
2022-09-12T11:41:58.030Z,99870.22
2022-09-12T11:47:03.919Z,99863.41
2022-09-12T11:52:11.839Z,99858.56
2022-09-12T11:57:18.437Z,99863.59
2022-09-12T12:02:27.713Z,99850.63
2022-09-12T12:07:45.171Z,99849.16
2022-09-12T12:12:48.632Z,99840.31
2022-09-12T12:18:04.825Z,99840.25
2022-09-12T12:23:06.737Z,99844.53
2022-09-12T12:28:09.122Z,99841.22
2022-09-12T12:33:10.968Z,99835.63
2022-09-12T12:38:31.205Z,99827.56
2022-09-12T12:43:34.612Z,99814.63
2022-09-12T12:49:03.321Z,99805.09
2022-09-12T12:54:28.205Z,99807.84
2022-09-12T12:59:30.817Z,99798.38
2022-09-12T13:04:33.926Z,99800.34
2022-09-12T13:09:52.585Z,99803.53
2022-09-12T13:14:58.386Z,99808.88
2022-09-12T13:20:30.111Z,99806.06
2022-09-12T13:25:36.726Z,99799.53
2022-09-12T13:31:06.101Z,99804.94
2022-09-12T13:36:09.917Z,99798.16
2022-09-12T13:41:35.782Z,99793.25
2022-09-12T13:46:38.155Z,99792.47
2022-09-12T13:51:40.566Z,99784.00
2022-09-12T13:56:49.962Z,99781.75
2022-09-12T14:01:52.203Z,99787.88
2022-09-12T14:06:54.388Z,99784.44
2022-09-12T14:11:57.756Z,99779.88
2022-09-12T14:17:00.548Z,99787.56
2022-09-12T14:22:02.537Z,99783.16
2022-09-12T14:27:05.013Z,99776.59
2022-09-12T14:32:23.191Z,99780.22
2022-09-12T14:37:25.313Z,99773.22
2022-09-12T14:42:31.138Z,99760.91
2022-09-12T14:47:42.455Z,99762.50
2022-09-12T14:52:44.409Z,99761.00
2022-09-12T14:57:47.900Z,99754.41
2022-09-12T15:02:52.069Z,99752.50
2022-09-12T15:08:15.912Z,99749.09
2022-09-12T15:13:20.629Z,99754.16
2022-09-12T15:18:25.836Z,99745.28
2022-09-12T15:23:43.007Z,99754.06
2022-09-12T15:28:45.394Z,99757.31
2022-09-12T15:33:47.319Z,99746.63
2022-09-12T15:38:50.726Z,99750.09
2022-09-12T15:43:52.599Z,99747.66
2022-09-12T15:48:54.189Z,99743.47
2022-09-12T15:53:56.015Z,99727.97
2022-09-12T15:58:59.664Z,99732.31
2022-09-12T16:04:03.363Z,99749.81
2022-09-12T16:09:05.769Z,99738.75
2022-09-12T16:14:07.971Z,99734.75
2022-09-12T16:19:11.090Z,99738.88
2022-09-12T16:24:12.858Z,99745.81
2022-09-12T16:29:14.721Z,99743.41
2022-09-12T16:34:16.522Z,99748.75
2022-09-12T16:39:18.488Z,99760.19
2022-09-12T16:44:20.056Z,99747.53
2022-09-12T16:49:21.895Z,99745.13
2022-09-12T16:54:23.878Z,99749.72
2022-09-12T16:59:25.636Z,99750.78
2022-09-12T17:04:28.804Z,99756.19
2022-09-12T17:09:30.457Z,99746.00
2022-09-12T17:14:32.305Z,99761.78
2022-09-12T17:19:33.991Z,99761.06
2022-09-12T17:24:35.822Z,99759.41
2022-09-12T17:29:38.691Z,99768.97
2022-09-12T17:34:40.852Z,99763.50
2022-09-12T17:39:42.794Z,99772.47
2022-09-12T17:44:44.569Z,99789.81
2022-09-12T17:49:47.591Z,99796.66
2022-09-12T17:54:49.521Z,99789.59
2022-09-12T17:59:51.609Z,99796.75
2022-09-12T18:04:53.374Z,99801.88
2022-09-12T18:09:55.349Z,99818.03
2022-09-12T18:14:56.994Z,99813.00
2022-09-12T18:19:58.688Z,99811.53
2022-09-12T18:25:00.588Z,99818.69
2022-09-12T18:30:20.619Z,99823.91
2022-09-12T18:35:23.130Z,99822.97
2022-09-12T18:40:25.864Z,99826.56
2022-09-12T18:45:27.554Z,99823.22
2022-09-12T18:50:29.382Z,99828.22
2022-09-12T18:55:32.069Z,99834.81
2022-09-12T19:00:33.854Z,99829.84
2022-09-12T19:05:35.709Z,99831.56
2022-09-12T19:10:37.526Z,99835.03
2022-09-12T19:15:40.236Z,99836.00
2022-09-12T19:20:42.049Z,99834.44
2022-09-12T19:25:45.461Z,99831.94
2022-09-12T19:30:47.761Z,99838.78
2022-09-12T19:35:50.292Z,99832.06
2022-09-12T19:40:57.022Z,99828.78
2022-09-12T19:46:00.243Z,99833.09
2022-09-12T19:51:04.664Z,99829.81
2022-09-12T19:56:08.729Z,99826.50
2022-09-12T20:01:13.526Z,99831.72
2022-09-12T20:06:17.792Z,99827.63
2022-09-12T20:11:21.662Z,99827.72
2022-09-12T20:16:25.797Z,99832.03
2022-09-12T20:21:34.202Z,99825.34
2022-09-12T20:26:36.382Z,99828.88
2022-09-12T20:31:40.709Z,99819.00
2022-09-12T20:36:42.861Z,99826.00
2022-09-12T20:41:45.002Z,99826.09
2022-09-12T20:46:46.903Z,99839.63
2022-09-12T20:51:48.961Z,99835.44
2022-09-12T20:56:50.773Z,99838.84
2022-09-12T21:01:52.409Z,99839.75
2022-09-12T21:06:54.361Z,99838.13
2022-09-12T21:11:56.057Z,99843.25
2022-09-12T21:16:57.725Z,99844.16
2022-09-12T21:21:59.360Z,99842.47
2022-09-12T21:27:04.168Z,99838.31
2022-09-12T21:32:09.943Z,99835.81
2022-09-12T21:37:14.182Z,99839.25
2022-09-12T21:42:16.052Z,99840.13
2022-09-12T21:47:18.046Z,99848.69
2022-09-12T21:52:19.924Z,99835.31
2022-09-12T21:57:22.465Z,99829.53
2022-09-12T22:02:27.481Z,99842.22
2022-09-12T22:07:29.642Z,99845.59
2022-09-12T22:12:31.388Z,99838.03
2022-09-12T22:17:33.229Z,99829.66
2022-09-12T22:22:54.818Z,99839.06
2022-09-12T22:27:56.610Z,99832.41
2022-09-12T22:32:58.439Z,99835.00
2022-09-12T22:38:00.131Z,99831.66
2022-09-12T22:43:02.612Z,99832.50
2022-09-12T22:48:08.590Z,99821.56
2022-09-12T22:53:11.286Z,99827.44
2022-09-12T22:58:13.081Z,99826.59
2022-09-12T23:03:15.057Z,99826.63
2022-09-12T23:08:17.781Z,99821.53
2022-09-12T23:13:19.573Z,99824.84
2022-09-12T23:18:21.144Z,99816.38
2022-09-12T23:23:22.814Z,99818.91
2022-09-12T23:28:24.597Z,99808.78
2022-09-12T23:33:30.679Z,99807.13
2022-09-12T23:38:34.125Z,99811.41
2022-09-12T23:43:35.837Z,99804.66
2022-09-12T23:48:37.757Z,99796.28
2022-09-12T23:53:41.310Z,99807.25
2022-09-12T23:58:43.209Z,99798.00
